Time;durP1;ratioP1;P1;durP2;ratioP2;P2;SDS_P1;SDS_P2;PMS_P1;PMS_P2;Temp;Humidity;BMP_temperature;BMP_pressure;BME280_temperature;BME280_humidity;BME280_pressure;Samples;Min_cycle;Max_cycle;Signal;HPM_P1;HPM_P2
2021/05/27 00:00:34;;;;;;;7.77;2.87;;;10.80;80.30;;;;;;5041802;28;20490;-48
2021/05/27 00:03:03;;;;;;;3.10;2.70;;;10.80;80.30;;;;;;5038663;28;20467;-48
2021/05/27 00:05:31;;;;;;;3.80;2.30;;;10.70;80.40;;;;;;5039963;28;20455;-48
2021/05/27 00:07:59;;;;;;;2.83;2.60;;;10.70;80.40;;;;;;5043863;28;20569;-48
2021/05/27 00:10:30;;;;;;;3.00;2.80;;;10.70;80.40;;;;;;5048233;28;20459;-48
2021/05/27 00:13:00;;;;;;;4.30;2.67;;;10.70;80.60;;;;;;5047329;28;20974;-48
2021/05/27 00:15:33;;;;;;;3.40;3.10;;;10.60;80.70;;;;;;5046149;28;20485;-48
2021/05/27 00:18:01;;;;;;;2.67;2.47;;;10.60;80.70;;;;;;5048468;28;20473;-48
2021/05/27 00:20:29;;;;;;;2.80;2.60;;;10.50;80.90;;;;;;5045888;28;20450;-48
2021/05/27 00:22:57;;;;;;;3.50;2.90;;;10.50;80.90;;;;;;5044132;28;20471;-48
2021/05/27 00:25:25;;;;;;;2.80;2.60;;;10.50;81.00;;;;;;5046924;28;20469;-48
2021/05/27 00:27:53;;;;;;;3.57;2.93;;;10.50;80.80;;;;;;5045243;28;20483;-48
2021/05/27 00:30:21;;;;;;;4.00;2.80;;;10.50;80.80;;;;;;5047993;28;20470;-48
2021/05/27 00:32:50;;;;;;;4.03;2.63;;;10.60;80.70;;;;;;5045984;28;20462;-48
2021/05/27 00:35:18;;;;;;;3.83;3.23;;;10.60;80.70;;;;;;5044834;28;20548;-48
2021/05/27 00:37:46;;;;;;;4.43;2.30;;;10.60;80.50;;;;;;5044172;28;20450;-48
2021/05/27 00:40:16;;;;;;;3.40;3.10;;;10.60;80.10;;;;;;5043726;28;20485;-48
2021/05/27 00:42:46;;;;;;;2.97;2.70;;;10.60;80.40;;;;;;5047653;28;20489;-48
2021/05/27 00:45:17;;;;;;;7.27;2.60;;;10.60;80.60;;;;;;5043243;28;20467;-48
2021/05/27 00:47:46;;;;;;;2.80;2.60;;;10.60;80.20;;;;;;5046900;28;20458;-48
2021/05/27 00:50:23;;;;;;;6.67;3.00;;;10.60;80.00;;;;;;5048060;28;20470;-48
2021/05/27 00:52:52;;;;;;;3.10;2.60;;;10.60;79.90;;;;;;5046613;28;20466;-48
2021/05/27 00:55:25;;;;;;;4.73;2.67;;;10.60;79.90;;;;;;5045091;28;20495;-48
2021/05/27 00:57:54;;;;;;;4.10;2.67;;;10.60;79.70;;;;;;5045374;28;20477;-48
2021/05/27 01:00:25;;;;;;;4.13;2.70;;;10.60;80.10;;;;;;5045271;28;20466;-48
2021/05/27 01:02:54;;;;;;;3.07;2.77;;;10.60;79.90;;;;;;5047306;28;20458;-49
2021/05/27 01:05:22;;;;;;;4.57;2.50;;;10.60;80.00;;;;;;5044078;28;20587;-48
2021/05/27 01:07:50;;;;;;;6.20;2.60;;;10.60;79.80;;;;;;5047531;28;20987;-47
2021/05/27 01:10:18;;;;;;;3.10;2.73;;;10.60;80.00;;;;;;5045843;28;20939;-48
2021/05/27 01:12:46;;;;;;;4.80;2.50;;;10.60;80.30;;;;;;5044608;28;20458;-48
2021/05/27 01:15:31;;;;;;;6.43;3.30;;;10.50;80.40;;;;;;5040605;28;20982;-48
2021/05/27 01:18:13;;;;;;;4.20;2.90;;;10.60;80.30;;;;;;5045849;28;20467;-48
2021/05/27 01:20:50;;;;;;;4.63;2.87;;;10.60;80.40;;;;;;5042879;28;20826;-48
2021/05/27 01:23:20;;;;;;;3.17;2.50;;;10.60;80.40;;;;;;5043921;28;20489;-48
2021/05/27 01:25:52;;;;;;;3.00;2.20;;;10.60;80.30;;;;;;5047458;28;20962;-48
2021/05/27 01:28:24;;;;;;;3.20;2.50;;;10.60;80.40;;;;;;5046680;28;20455;-48
2021/05/27 01:30:52;;;;;;;3.57;2.90;;;10.60;80.10;;;;;;5044620;28;20463;-48
2021/05/27 01:33:20;;;;;;;3.77;3.13;;;10.60;80.30;;;;;;5045974;28;20943;-48
2021/05/27 01:35:48;;;;;;;2.80;2.60;;;10.60;80.60;;;;;;5043967;28;20498;-48
2021/05/27 01:38:21;;;;;;;2.97;2.77;;;10.60;80.60;;;;;;5044701;28;20454;-48
2021/05/27 01:40:51;;;;;;;3.50;2.67;;;10.60;80.50;;;;;;5042490;28;20470;-48
2021/05/27 01:43:21;;;;;;;4.47;2.60;;;10.60;80.70;;;;;;5046074;28;20460;-48
2021/05/27 01:45:49;;;;;;;5.10;2.90;;;10.60;80.70;;;;;;5041988;28;20477;-48
2021/05/27 01:48:17;;;;;;;4.07;3.60;;;10.70;80.20;;;;;;5047470;28;20470;-48
2021/05/27 01:50:47;;;;;;;3.90;2.30;;;10.70;80.30;;;;;;5043025;28;20459;-48
2021/05/27 01:53:16;;;;;;;2.90;2.40;;;10.70;80.20;;;;;;5043334;28;20458;-48
2021/05/27 01:55:46;;;;;;;2.43;2.10;;;10.70;80.20;;;;;;5045911;28;20486;-48
2021/05/27 01:58:17;;;;;;;4.30;2.57;;;10.70;80.20;;;;;;5044347;28;20454;-48
2021/05/27 02:00:46;;;;;;;2.47;2.20;;;10.80;80.20;;;;;;5044863;28;20451;-48
2021/05/27 02:03:15;;;;;;;2.73;2.50;;;10.70;80.30;;;;;;5046364;28;20937;-48
2021/05/27 02:05:44;;;;;;;3.47;3.17;;;10.70;80.40;;;;;;5045104;28;20458;-48
2021/05/27 02:08:13;;;;;;;2.80;2.00;;;10.80;80.50;;;;;;5044653;28;20497;-48
2021/05/27 02:10:41;;;;;;;4.07;3.20;;;10.80;80.70;;;;;;5046348;28;20470;-48
2021/05/27 02:13:09;;;;;;;14.10;7.40;;;10.80;80.60;;;;;;5041493;28;20463;-48
2021/05/27 02:15:37;;;;;;;9.90;6.13;;;10.80;80.70;;;;;;5042445;28;20983;-48
2021/05/27 02:18:05;;;;;;;3.30;2.60;;;10.80;80.70;;;;;;5043006;28;20471;-48
2021/05/27 02:20:34;;;;;;;3.20;2.33;;;10.80;80.50;;;;;;5043862;28;20443;-48
2021/05/27 02:23:02;;;;;;;6.57;2.50;;;10.80;80.60;;;;;;5042693;28;20870;-48
2021/05/27 02:25:30;;;;;;;3.50;3.20;;;10.80;80.70;;;;;;5042872;28;20451;-49
2021/05/27 02:27:58;;;;;;;4.33;2.30;;;10.80;80.70;;;;;;5043926;28;20481;-49
2021/05/27 02:30:26;;;;;;;3.03;2.23;;;10.80;80.70;;;;;;5045952;28;20465;-48
2021/05/27 02:32:54;;;;;;;3.17;2.87;;;10.80;80.60;;;;;;5045015;28;20864;-48
2021/05/27 02:35:22;;;;;;;3.40;2.53;;;10.80;80.80;;;;;;5040760;28;20490;-49
2021/05/27 02:37:50;;;;;;;4.00;2.70;;;10.80;80.90;;;;;;5042571;28;20923;-49
2021/05/27 02:40:18;;;;;;;4.10;2.57;;;10.80;80.80;;;;;;5045568;28;20474;-49
2021/05/27 02:42:46;;;;;;;3.90;2.93;;;10.80;80.80;;;;;;5043017;28;20822;-49
2021/05/27 02:45:14;;;;;;;2.53;2.33;;;10.80;80.90;;;;;;5043871;28;20458;-48
2021/05/27 02:47:42;;;;;;;2.90;2.47;;;10.80;81.00;;;;;;5045334;28;20997;-49
2021/05/27 02:50:11;;;;;;;3.33;2.90;;;10.80;81.10;;;;;;5043304;28;20477;-51
2021/05/27 02:52:39;;;;;;;3.67;2.70;;;10.90;80.90;;;;;;5041489;28;20459;-48
2021/05/27 02:55:08;;;;;;;3.00;2.70;;;10.80;81.20;;;;;;5044252;28;20456;-48
2021/05/27 02:57:36;;;;;;;5.70;3.10;;;10.80;81.50;;;;;;5043370;28;20463;-49
2021/05/27 03:00:08;;;;;;;2.70;2.50;;;10.90;81.50;;;;;;5041482;28;20456;-49
2021/05/27 03:02:37;;;;;;;4.00;2.60;;;10.90;81.20;;;;;;5040694;28;20452;-49
2021/05/27 03:05:05;;;;;;;3.37;3.07;;;11.00;80.70;;;;;;5046385;28;20981;-49
2021/05/27 03:07:33;;;;;;;4.27;3.30;;;11.00;80.80;;;;;;5041503;28;20470;-48
2021/05/27 03:10:02;;;;;;;5.80;3.10;;;11.00;80.30;;;;;;5044853;28;20461;-49
2021/05/27 03:12:30;;;;;;;5.37;2.57;;;11.00;80.20;;;;;;5043294;28;20513;-49
2021/05/27 03:14:58;;;;;;;4.80;2.83;;;11.00;80.10;;;;;;5045188;28;20455;-48
2021/05/27 03:17:27;;;;;;;3.80;2.70;;;11.00;80.20;;;;;;5043214;28;20450;-49
2021/05/27 03:19:55;;;;;;;3.10;2.80;;;11.00;80.20;;;;;;5044921;28;20980;-48
2021/05/27 03:22:23;;;;;;;3.77;3.30;;;11.00;80.00;;;;;;5040372;28;20450;-48
2021/05/27 03:24:51;;;;;;;4.80;4.27;;;11.00;79.90;;;;;;5042841;28;20470;-48
2021/05/27 03:27:19;;;;;;;3.53;2.23;;;11.00;79.70;;;;;;5044474;28;20473;-48
2021/05/27 03:29:47;;;;;;;5.93;3.10;;;11.00;79.60;;;;;;5043624;28;20536;-48
2021/05/27 03:32:15;;;;;;;5.53;2.43;;;11.00;79.60;;;;;;5041656;28;20474;-48
2021/05/27 03:34:43;;;;;;;2.97;2.77;;;10.90;79.80;;;;;;5045446;28;20482;-49
2021/05/27 03:37:11;;;;;;;6.40;2.50;;;10.90;79.70;;;;;;5041535;28;20851;-49
2021/05/27 03:39:39;;;;;;;3.93;2.90;;;10.90;79.70;;;;;;5042034;28;20470;-48
2021/05/27 03:42:07;;;;;;;5.07;2.80;;;10.80;79.80;;;;;;5039944;28;20486;-48
2021/05/27 03:44:35;;;;;;;3.87;2.80;;;10.80;79.60;;;;;;5039633;28;20446;-48
2021/05/27 03:47:04;;;;;;;3.90;3.60;;;10.80;79.70;;;;;;5042322;28;20861;-48
2021/05/27 03:49:32;;;;;;;4.30;2.67;;;10.80;79.50;;;;;;5045340;28;20466;-49
2021/05/27 03:52:00;;;;;;;6.70;4.37;;;10.80;79.90;;;;;;5043257;28;20952;-48
2021/05/27 03:54:28;;;;;;;5.97;3.20;;;10.70;79.90;;;;;;5041045;28;20470;-48
2021/05/27 03:56:56;;;;;;;4.30;3.23;;;10.80;79.70;;;;;;5044399;28;20490;-48
2021/05/27 04:02:10;;;;;;;3.30;3.00;;;10.80;79.70;;;;;;5041125;28;20461;-49
2021/05/27 04:07:26;;;;;;;4.57;3.30;;;10.80;79.50;;;;;;5042800;28;20545;-48
2021/05/27 04:09:54;;;;;;;4.33;3.73;;;10.80;79.80;;;;;;5040201;28;20490;-48
2021/05/27 04:15:32;;;;;;;4.33;3.70;;;10.70;80.10;;;;;;5043526;28;20485;-48
2021/05/27 04:18:17;;;;;;;6.27;3.67;;;10.70;80.10;;;;;;5041035;28;20467;-48
2021/05/27 04:20:51;;;;;;;6.83;3.63;;;10.70;80.10;;;;;;5040130;28;20488;-48
2021/05/27 04:23:35;;;;;;;4.73;3.67;;;10.70;80.00;;;;;;5039800;28;20455;-48
2021/05/27 04:26:11;;;;;;;7.37;4.10;;;10.70;80.20;;;;;;5041494;28;20461;-47
2021/05/27 04:28:41;;;;;;;3.93;3.53;;;10.70;80.00;;;;;;5043970;28;20454;-48
2021/05/27 04:31:16;;;;;;;4.00;3.70;;;10.70;80.00;;;;;;5041832;28;20463;-48
2021/05/27 04:33:45;;;;;;;5.23;3.60;;;10.70;80.20;;;;;;5040499;28;20472;-48
2021/05/27 04:36:15;;;;;;;4.83;4.37;;;10.70;79.90;;;;;;5039597;28;20486;-48
2021/05/27 04:38:44;;;;;;;5.80;4.20;;;10.70;80.00;;;;;;5039499;28;20459;-48
2021/05/27 04:41:13;;;;;;;4.63;4.17;;;10.70;80.40;;;;;;5037905;28;20458;-48
2021/05/27 04:43:41;;;;;;;4.30;3.80;;;10.70;80.40;;;;;;5043403;28;20463;-49
2021/05/27 04:46:09;;;;;;;6.30;4.20;;;10.70;80.40;;;;;;5037807;28;20498;-48
2021/05/27 04:48:38;;;;;;;5.37;4.87;;;10.70;80.20;;;;;;5042718;28;20533;-48
2021/05/27 04:51:06;;;;;;;5.10;4.60;;;10.70;80.50;;;;;;5041743;28;20489;-48
2021/05/27 04:53:34;;;;;;;10.00;4.73;;;10.70;80.30;;;;;;5043868;28;20473;-49
2021/05/27 04:56:03;;;;;;;7.20;5.00;;;10.70;80.30;;;;;;5046808;28;20494;-48
2021/05/27 04:58:32;;;;;;;5.17;4.03;;;10.60;80.70;;;;;;5045890;28;20481;-48
2021/05/27 05:01:00;;;;;;;6.17;5.20;;;10.60;80.80;;;;;;5043397;28;20528;-48
2021/05/27 05:03:28;;;;;;;6.80;5.23;;;10.70;80.70;;;;;;5045099;28;20462;-48
2021/05/27 05:05:56;;;;;;;6.83;4.83;;;10.60;81.00;;;;;;5045110;28;20459;-48
2021/05/27 05:08:25;;;;;;;7.27;5.07;;;10.70;80.70;;;;;;5042002;28;20491;-48
2021/05/27 05:10:53;;;;;;;4.90;4.33;;;10.70;81.00;;;;;;5045038;28;20480;-48
2021/05/27 05:13:21;;;;;;;5.10;4.40;;;10.70;80.50;;;;;;5044199;28;20462;-48
2021/05/27 05:15:49;;;;;;;6.50;5.10;;;10.70;80.30;;;;;;5045942;28;20829;-48
2021/05/27 05:18:17;;;;;;;9.87;4.43;;;10.70;80.10;;;;;;5046734;28;20466;-48
2021/05/27 05:20:49;;;;;;;4.57;4.20;;;10.70;80.50;;;;;;5043812;28;20822;-48
2021/05/27 05:23:18;;;;;;;6.30;5.13;;;10.80;80.20;;;;;;5043028;28;20476;-48
2021/05/27 05:25:47;;;;;;;9.43;6.50;;;10.80;80.30;;;;;;5046183;28;20949;-49
2021/05/27 05:28:15;;;;;;;5.57;4.37;;;10.80;80.30;;;;;;5040737;28;20476;-48
2021/05/27 05:30:45;;;;;;;4.63;4.20;;;10.80;80.30;;;;;;5044453;28;20450;-48
2021/05/27 05:33:13;;;;;;;9.07;4.67;;;10.80;80.40;;;;;;5043664;28;22223;-48
2021/05/27 05:35:41;;;;;;;7.87;4.97;;;10.80;80.50;;;;;;5042474;28;20463;-48
2021/05/27 05:38:09;;;;;;;4.47;4.07;;;10.80;80.70;;;;;;5043994;28;20450;-48
2021/05/27 05:40:37;;;;;;;7.70;4.40;;;10.90;80.70;;;;;;5044794;28;20825;-48
2021/05/27 05:43:05;;;;;;;8.30;5.00;;;10.90;80.20;;;;;;5045014;28;20443;-48
2021/05/27 05:45:34;;;;;;;5.57;4.50;;;11.00;80.40;;;;;;5041609;28;20451;-48
2021/05/27 05:48:08;;;;;;;5.60;4.30;;;11.00;80.30;;;;;;5041611;28;20467;-48
2021/05/27 05:50:45;;;;;;;5.20;4.33;;;11.10;79.70;;;;;;5042061;28;20455;-48
2021/05/27 05:53:19;;;;;;;7.73;5.50;;;11.10;79.80;;;;;;5042411;28;20471;-48
2021/05/27 05:55:49;;;;;;;5.63;4.30;;;11.10;79.90;;;;;;5043375;28;20493;-48
2021/05/27 05:58:17;;;;;;;4.70;3.97;;;11.10;79.80;;;;;;5044776;28;20478;-48
2021/05/27 06:00:45;;;;;;;6.30;4.77;;;11.20;79.10;;;;;;5041341;28;20465;-48
2021/05/27 06:03:13;;;;;;;4.87;4.40;;;11.20;78.90;;;;;;5037925;28;20463;-49
2021/05/27 06:05:41;;;;;;;4.70;4.30;;;11.20;79.30;;;;;;5040565;28;20470;-48
2021/05/27 06:08:10;;;;;;;5.70;5.20;;;11.20;79.50;;;;;;5042746;28;20502;-48
2021/05/27 06:10:38;;;;;;;7.40;4.50;;;11.20;79.50;;;;;;5041928;28;20455;-47
2021/05/27 06:13:07;;;;;;;6.10;4.10;;;11.30;79.30;;;;;;5040423;28;20971;-48
2021/05/27 06:15:36;;;;;;;5.93;4.00;;;11.30;79.00;;;;;;5037653;28;20462;-49
2021/05/27 06:18:04;;;;;;;7.97;4.80;;;11.30;79.10;;;;;;5036945;28;20856;-47
2021/05/27 06:20:32;;;;;;;5.43;4.67;;;11.40;79.00;;;;;;5043344;28;20482;-48
2021/05/27 06:23:01;;;;;;;7.37;4.90;;;11.40;78.60;;;;;;5041679;28;20458;-48
2021/05/27 06:25:31;;;;;;;5.27;4.77;;;11.40;78.50;;;;;;5049231;28;20454;-48
2021/05/27 06:28:00;;;;;;;7.50;4.50;;;11.40;78.90;;;;;;5039448;28;20464;-48
2021/05/27 06:30:28;;;;;;;6.83;5.00;;;11.50;78.70;;;;;;5039665;28;20465;-48
2021/05/27 06:32:58;;;;;;;11.90;8.07;;;11.50;78.70;;;;;;5045790;28;20994;-48
2021/05/27 06:35:26;;;;;;;9.00;5.80;;;11.50;79.00;;;;;;5042131;28;20541;-50
2021/05/27 06:37:54;;;;;;;6.63;5.60;;;11.50;78.70;;;;;;5044640;28;20967;-48
2021/05/27 06:40:25;;;;;;;6.57;4.80;;;11.60;78.50;;;;;;5041786;28;20462;-48
2021/05/27 06:42:53;;;;;;;6.63;4.57;;;11.60;78.60;;;;;;5038290;28;20465;-48
2021/05/27 06:45:23;;;;;;;5.33;4.20;;;11.60;78.40;;;;;;5045032;28;20947;-48
2021/05/27 06:47:51;;;;;;;6.67;4.93;;;11.60;78.50;;;;;;5042598;28;20458;-48
2021/05/27 06:50:54;;;;;;;6.90;4.93;;;11.60;78.30;;;;;;5041518;28;20962;-47
2021/05/27 06:53:18;;;;;;;6.90;4.67;;;11.60;78.60;;;;;;5037674;28;20463;-47
2021/05/27 06:55:47;;;;;;;5.57;4.67;;;11.60;79.20;;;;;;5041132;28;20943;-48
2021/05/27 06:58:17;;;;;;;5.53;4.97;;;11.70;79.10;;;;;;5043531;28;20474;-48
2021/05/27 07:00:48;;;;;;;6.10;4.83;;;11.70;79.40;;;;;;5044833;28;20451;-47
2021/05/27 07:03:17;;;;;;;7.77;5.40;;;11.80;79.50;;;;;;5036687;28;20454;-47
2021/05/27 07:05:45;;;;;;;7.90;5.20;;;11.80;79.60;;;;;;5044049;28;20435;-47
2021/05/27 07:08:13;;;;;;;9.63;4.57;;;11.90;78.90;;;;;;5042164;28;20502;-48
2021/05/27 07:10:41;;;;;;;5.23;4.67;;;12.00;78.40;;;;;;5044568;28;21030;-47
2021/05/27 07:13:10;;;;;;;7.27;5.00;;;12.00;78.70;;;;;;5044235;28;20454;-48
2021/05/27 07:15:39;;;;;;;4.40;4.00;;;12.10;78.50;;;;;;5039123;28;20454;-47
2021/05/27 07:18:07;;;;;;;5.33;4.50;;;12.10;78.20;;;;;;5044992;28;20498;-48
2021/05/27 07:20:37;;;;;;;5.20;3.97;;;12.20;77.90;;;;;;5043172;28;20556;-48
2021/05/27 07:23:05;;;;;;;4.60;4.17;;;12.20;77.50;;;;;;5038789;28;20827;-48
2021/05/27 07:25:33;;;;;;;6.07;3.60;;;12.30;77.10;;;;;;5047695;28;20820;-47
2021/05/27 07:28:01;;;;;;;4.33;3.70;;;12.30;77.20;;;;;;5043293;28;20463;-48
2021/05/27 07:30:30;;;;;;;5.27;4.60;;;12.40;77.30;;;;;;5041347;28;20462;-47
2021/05/27 07:32:58;;;;;;;3.87;3.47;;;12.50;77.00;;;;;;5044430;28;20471;-48
2021/05/27 07:35:27;;;;;;;4.30;3.60;;;12.60;76.60;;;;;;5037364;28;20521;-48
2021/05/27 07:37:57;;;;;;;5.30;4.10;;;12.60;76.30;;;;;;5039216;28;20857;-48
2021/05/27 07:40:26;;;;;;;4.57;4.23;;;12.70;76.10;;;;;;5045361;28;20440;-47
2021/05/27 07:42:54;;;;;;;10.43;4.47;;;12.80;75.60;;;;;;5037820;28;20439;-47
2021/05/27 07:45:22;;;;;;;7.00;4.87;;;12.90;75.30;;;;;;5045009;28;20450;-48
2021/05/27 07:47:50;;;;;;;6.83;5.17;;;13.00;75.20;;;;;;5041205;28;20832;-47
2021/05/27 07:50:21;;;;;;;6.87;5.03;;;13.00;75.90;;;;;;5043084;28;20492;-48
2021/05/27 07:52:54;;;;;;;8.10;5.17;;;13.00;76.00;;;;;;5040327;28;20470;-48
2021/05/27 07:55:23;;;;;;;5.50;4.80;;;13.00;75.90;;;;;;5040735;28;20521;-47
2021/05/27 07:57:52;;;;;;;6.00;4.60;;;13.10;75.90;;;;;;5040079;28;20494;-48
2021/05/27 08:00:21;;;;;;;5.43;3.87;;;13.10;75.90;;;;;;5042745;28;20460;-47
2021/05/27 08:02:50;;;;;;;7.20;5.00;;;13.20;75.30;;;;;;5039212;28;20490;-48
2021/05/27 08:05:21;;;;;;;7.97;4.80;;;13.20;74.00;;;;;;5041651;28;20458;-47
2021/05/27 08:07:50;;;;;;;7.20;4.60;;;13.10;74.40;;;;;;5041767;28;21009;-48
2021/05/27 08:10:19;;;;;;;4.93;4.53;;;13.20;74.80;;;;;;5038523;28;21014;-48
2021/05/27 08:12:47;;;;;;;6.80;4.97;;;13.20;74.80;;;;;;5036338;28;20682;-48
2021/05/27 08:15:15;;;;;;;5.20;4.70;;;13.30;74.90;;;;;;5040952;28;20461;-47
2021/05/27 08:17:43;;;;;;;5.80;5.17;;;13.30;74.50;;;;;;5039545;28;22260;-48
2021/05/27 08:20:12;;;;;;;6.30;5.47;;;13.30;75.00;;;;;;5042387;28;20956;-47
2021/05/27 08:22:40;;;;;;;4.53;4.03;;;13.40;74.80;;;;;;5039406;28;20463;-48
2021/05/27 08:25:10;;;;;;;5.00;4.60;;;13.40;75.10;;;;;;5042318;28;20458;-47
2021/05/27 08:27:38;;;;;;;4.50;4.07;;;13.40;75.80;;;;;;5040187;28;20752;-47
2021/05/27 08:30:07;;;;;;;5.73;4.43;;;13.50;74.70;;;;;;5041380;28;20490;-47
2021/05/27 08:32:35;;;;;;;6.33;4.43;;;13.60;74.60;;;;;;5041961;28;20569;-47
2021/05/27 08:35:04;;;;;;;6.13;3.80;;;13.60;74.60;;;;;;5044044;28;20466;-48
2021/05/27 08:37:33;;;;;;;5.40;3.90;;;13.70;74.00;;;;;;5043837;28;20486;-46
2021/05/27 08:40:02;;;;;;;5.37;3.90;;;13.80;74.30;;;;;;5048953;28;20508;-48
2021/05/27 08:42:31;;;;;;;5.53;4.13;;;13.90;74.20;;;;;;5047914;28;20461;-48
2021/05/27 08:45:00;;;;;;;5.07;4.33;;;13.90;74.00;;;;;;5042583;28;20891;-48
2021/05/27 08:47:28;;;;;;;6.27;4.60;;;14.00;73.10;;;;;;5046666;28;20463;-48
2021/05/27 08:50:00;;;;;;;5.37;4.07;;;14.00;72.60;;;;;;5045308;28;20493;-48
2021/05/27 08:52:28;;;;;;;5.50;4.30;;;14.10;73.20;;;;;;5046127;28;20999;-48
2021/05/27 08:54:56;;;;;;;4.27;3.97;;;14.10;72.90;;;;;;5045819;28;20457;-48
2021/05/27 08:57:24;;;;;;;6.03;4.70;;;14.30;73.10;;;;;;5044418;28;20919;-48
2021/05/27 08:59:53;;;;;;;4.67;3.77;;;14.30;73.50;;;;;;5042140;28;20454;-48
2021/05/27 09:02:21;;;;;;;5.90;3.63;;;14.40;73.50;;;;;;5046063;28;20477;-47
2021/05/27 09:04:51;;;;;;;5.27;3.93;;;14.40;72.70;;;;;;5042949;28;20458;-48
2021/05/27 09:07:39;;;;;;;7.07;3.83;;;14.50;71.20;;;;;;5042018;28;20557;-48
2021/05/27 09:10:08;;;;;;;5.30;3.77;;;14.50;71.10;;;;;;5043945;28;20558;-46
2021/05/27 09:12:37;;;;;;;5.83;4.10;;;14.50;71.30;;;;;;5043648;28;20473;-48
2021/05/27 09:15:17;;;;;;;3.97;3.57;;;14.50;71.10;;;;;;5044066;28;20447;-48
2021/05/27 09:17:46;;;;;;;3.40;3.17;;;14.60;72.20;;;;;;5043394;28;20497;-48
2021/05/27 09:20:28;;;;;;;7.87;3.80;;;14.60;71.30;;;;;;5047766;28;20470;-49
2021/05/27 09:23:17;;;;;;;3.80;3.30;;;14.80;71.30;;;;;;5044275;28;20467;-47
2021/05/27 09:25:51;;;;;;;3.27;3.00;;;15.00;72.50;;;;;;5044683;28;20435;-48
2021/05/27 09:28:28;;;;;;;3.93;2.87;;;15.20;70.40;;;;;;5044082;28;20921;-48
2021/05/27 09:31:01;;;;;;;3.30;3.03;;;15.40;69.00;;;;;;5042093;28;22472;-48
2021/05/27 09:33:42;;;;;;;3.80;2.47;;;15.60;67.90;;;;;;5043937;28;20447;-48
2021/05/27 09:36:19;;;;;;;3.60;2.63;;;16.00;67.10;;;;;;5044070;28;20463;-48
2021/05/27 09:38:53;;;;;;;2.70;2.50;;;16.20;66.10;;;;;;5042099;28;20487;-48
2021/05/27 09:41:23;;;;;;;2.63;2.43;;;16.20;66.30;;;;;;5043983;28;20993;-48
2021/05/27 09:43:53;;;;;;;8.83;2.93;;;16.20;66.00;;;;;;5041934;28;20446;-48
2021/05/27 09:46:25;;;;;;;3.43;2.57;;;16.20;65.30;;;;;;5042274;28;20506;-48
2021/05/27 09:49:06;;;;;;;4.93;2.73;;;16.40;64.70;;;;;;5044328;28;20474;-48
2021/05/27 09:51:36;;;;;;;4.50;2.70;;;16.40;64.60;;;;;;5043824;28;20453;-48
2021/05/27 09:54:05;;;;;;;2.90;2.60;;;16.30;64.70;;;;;;5043541;28;20471;-48
2021/05/27 09:56:42;;;;;;;2.70;2.50;;;16.10;64.60;;;;;;5044368;28;20459;-48
2021/05/27 09:59:12;;;;;;;3.23;2.53;;;16.00;64.10;;;;;;5043843;28;20454;-48
2021/05/27 10:02:07;;;;;;;5.07;2.77;;;15.80;64.80;;;;;;5041840;28;20454;-48
2021/05/27 10:04:35;;;;;;;4.40;3.17;;;15.60;65.00;;;;;;5043105;28;20458;-47
2021/05/27 10:07:05;;;;;;;9.50;3.20;;;15.40;66.10;;;;;;5044668;28;20466;-48
2021/05/27 10:09:33;;;;;;;3.13;2.83;;;15.30;65.80;;;;;;5046049;28;20467;-47
2021/05/27 10:12:01;;;;;;;3.93;2.70;;;15.30;65.80;;;;;;5040482;28;20452;-48
2021/05/27 10:14:30;;;;;;;3.47;2.73;;;15.20;66.70;;;;;;5046899;28;20528;-47
2021/05/27 10:16:58;;;;;;;4.23;3.17;;;15.10;67.60;;;;;;5039341;28;20533;-47
2021/05/27 10:19:26;;;;;;;3.13;2.83;;;15.10;68.10;;;;;;5040681;28;20810;-48
2021/05/27 10:21:54;;;;;;;3.23;2.87;;;15.10;67.50;;;;;;5041922;28;20458;-48
2021/05/27 10:24:22;;;;;;;3.30;3.03;;;15.00;67.80;;;;;;5044913;28;20471;-47
2021/05/27 10:26:51;;;;;;;4.70;3.17;;;15.10;67.00;;;;;;5040113;28;20451;-47
2021/05/27 10:29:25;;;;;;;3.70;3.17;;;15.10;66.90;;;;;;5043940;28;20699;-48
2021/05/27 10:31:54;;;;;;;4.30;2.50;;;15.20;67.00;;;;;;5040641;28;21044;-48
2021/05/27 10:34:45;;;;;;;3.23;2.90;;;15.30;66.20;;;;;;5045288;28;20979;-48
2021/05/27 10:37:18;;;;;;;2.57;2.37;;;15.40;65.50;;;;;;5040050;28;20446;-47
2021/05/27 10:39:48;;;;;;;2.60;2.40;;;15.50;65.10;;;;;;5042833;28;21216;-48
2021/05/27 10:42:18;;;;;;;2.83;2.40;;;15.50;65.80;;;;;;5042007;28;20450;-48
2021/05/27 10:45:08;;;;;;;2.70;2.50;;;15.60;66.00;;;;;;5044152;28;21123;-47
2021/05/27 10:47:36;;;;;;;3.10;2.70;;;15.70;64.00;;;;;;5042560;28;21203;-48
2021/05/27 10:50:07;;;;;;;3.20;2.80;;;15.70;64.10;;;;;;5041387;28;20471;-47
2021/05/27 10:52:36;;;;;;;3.53;2.60;;;15.80;65.70;;;;;;5042006;28;20459;-48
2021/05/27 10:55:06;;;;;;;2.90;2.60;;;15.80;64.40;;;;;;5042248;28;20952;-48
2021/05/27 10:57:41;;;;;;;3.90;2.40;;;15.80;64.10;;;;;;5036351;28;20478;-48
2021/05/27 11:00:18;;;;;;;2.50;2.30;;;15.90;64.40;;;;;;5038919;28;20489;-48
2021/05/27 11:02:46;;;;;;;2.60;2.37;;;15.80;63.80;;;;;;5043621;28;20458;-47
2021/05/27 11:05:15;;;;;;;2.40;2.20;;;15.80;62.50;;;;;;5040513;28;20436;-48
2021/05/27 11:08:22;;;;;;;5.57;2.17;;;15.70;63.80;;;;;;5045075;28;20478;-48
2021/05/27 11:10:50;;;;;;;2.10;2.00;;;15.70;65.30;;;;;;5041084;28;20561;-48
2021/05/27 11:13:18;;;;;;;2.47;2.13;;;15.70;64.70;;;;;;5042493;28;20451;-48
2021/05/27 11:16:15;;;;;;;2.90;2.40;;;15.70;65.10;;;;;;5045910;28;20446;-48
2021/05/27 11:18:43;;;;;;;2.63;2.40;;;15.70;66.00;;;;;;5027980;28;20482;-48
2021/05/27 11:21:39;;;;;;;3.27;2.90;;;15.60;66.20;;;;;;5043960;28;20459;-48
2021/05/27 11:24:34;;;;;;;3.20;1.90;;;15.60;65.70;;;;;;5040567;28;20474;-48
2021/05/27 11:27:26;;;;;;;2.73;2.50;;;15.60;64.60;;;;;;5040786;28;20458;-48
2021/05/27 11:30:23;;;;;;;2.17;1.97;;;15.60;64.40;;;;;;5041324;28;20454;-48
2021/05/27 11:33:14;;;;;;;2.53;2.23;;;15.50;63.70;;;;;;5040405;28;20450;-48
2021/05/27 11:35:45;;;;;;;3.80;2.67;;;15.50;64.10;;;;;;5034586;28;20459;-48
2021/05/27 11:38:25;;;;;;;2.60;2.40;;;15.40;65.00;;;;;;5044881;28;20512;-48
2021/05/27 11:41:05;;;;;;;2.20;2.00;;;15.30;64.80;;;;;;5040096;28;20933;-48
2021/05/27 11:43:42;;;;;;;2.60;2.40;;;15.30;65.30;;;;;;5041409;28;20982;-48
2021/05/27 11:46:36;;;;;;;2.67;2.30;;;15.30;65.40;;;;;;5041417;28;20457;-48
2021/05/27 11:49:05;;;;;;;3.03;2.70;;;15.30;67.00;;;;;;5035713;28;20473;-48
2021/05/27 11:51:38;;;;;;;3.10;2.90;;;15.30;67.10;;;;;;5042062;28;20463;-48
2021/05/27 11:54:09;;;;;;;4.00;2.97;;;15.30;67.30;;;;;;5037572;28;20462;-48
2021/05/27 11:56:46;;;;;;;4.70;2.80;;;15.30;67.10;;;;;;5043675;28;21050;-48
2021/05/27 11:59:17;;;;;;;3.27;2.80;;;15.30;67.90;;;;;;5043623;28;20494;-48
2021/05/27 12:02:00;;;;;;;3.40;2.70;;;15.30;68.70;;;;;;5041101;28;20462;-48
2021/05/27 12:04:30;;;;;;;3.03;2.80;;;15.20;69.10;;;;;;5043957;28;20473;-48
2021/05/27 12:06:59;;;;;;;4.60;2.70;;;15.20;69.90;;;;;;5044699;28;20467;-48
2021/05/27 12:09:36;;;;;;;4.97;3.03;;;15.10;70.40;;;;;;5047993;28;20494;-48
2021/05/27 12:12:27;;;;;;;3.40;3.00;;;15.00;71.20;;;;;;5040767;28;20471;-47
2021/05/27 12:14:59;;;;;;;5.03;3.30;;;14.90;71.50;;;;;;5045602;28;20467;-48
2021/05/27 12:17:36;;;;;;;2.67;2.47;;;14.90;72.40;;;;;;5048372;28;20462;-48
2021/05/27 12:20:17;;;;;;;2.93;2.73;;;14.90;70.90;;;;;;5044680;28;20463;-48
2021/05/27 12:23:06;;;;;;;3.07;2.87;;;14.90;71.60;;;;;;5046244;28;20462;-48
2021/05/27 12:25:37;;;;;;;3.90;3.50;;;14.80;72.40;;;;;;5046074;28;20458;-48
2021/05/27 12:28:15;;;;;;;3.13;2.70;;;14.80;72.30;;;;;;5045891;28;20500;-47
2021/05/27 12:30:53;;;;;;;5.20;3.63;;;14.90;71.60;;;;;;5049141;28;20450;-47
2021/05/27 12:33:32;;;;;;;3.80;3.50;;;14.90;72.60;;;;;;5040522;28;20466;-48
2021/05/27 12:36:11;;;;;;;4.27;3.20;;;15.00;72.00;;;;;;5043348;28;20457;-48
2021/05/27 12:38:50;;;;;;;4.23;3.83;;;15.10;72.50;;;;;;5044181;28;20495;-47
2021/05/27 12:41:23;;;;;;;4.90;2.90;;;15.10;72.70;;;;;;5045255;28;20950;-48
2021/05/27 12:43:55;;;;;;;4.00;3.70;;;15.10;72.60;;;;;;5044311;28;20462;-48
2021/05/27 12:46:34;;;;;;;3.73;2.90;;;15.20;72.90;;;;;;5042515;28;20550;-48
2021/05/27 12:49:05;;;;;;;3.40;3.10;;;15.20;72.90;;;;;;5045217;28;20461;-48
2021/05/27 12:51:39;;;;;;;5.80;3.40;;;15.20;72.90;;;;;;5046435;28;20450;-48
2021/05/27 12:54:07;;;;;;;3.40;3.07;;;15.30;73.10;;;;;;5045479;28;20465;-48
2021/05/27 12:56:38;;;;;;;6.03;2.90;;;15.20;72.50;;;;;;5047711;28;20517;-48
2021/05/27 12:59:12;;;;;;;6.07;3.33;;;15.20;71.70;;;;;;5043706;28;20487;-48
2021/05/27 13:01:50;;;;;;;3.93;3.10;;;15.10;71.80;;;;;;5038829;28;20450;-48
2021/05/27 13:04:21;;;;;;;4.93;3.77;;;15.20;71.80;;;;;;5044257;28;20466;-48
2021/05/27 13:07:14;;;;;;;3.73;3.23;;;15.20;72.00;;;;;;5044596;28;20494;-48
2021/05/27 13:09:53;;;;;;;3.83;3.40;;;15.30;72.20;;;;;;5043950;28;20478;-48
2021/05/27 13:12:25;;;;;;;4.33;3.60;;;15.30;71.90;;;;;;5044709;28;20481;-48
2021/05/27 13:15:23;;;;;;;4.50;3.00;;;15.40;71.70;;;;;;5042593;28;20467;-48